sensor_id;sensor_type;location;lat;lon;timestamp;P1;durP1;ratioP1;P2;durP2;ratioP2
76373;SDS011;65197;50.164;8.012;2023-12-22T00:00:08;2.53;;;1.10;;
76373;SDS011;65197;50.164;8.012;2023-12-22T00:02:33;1.80;;;1.40;;
76373;SDS011;65197;50.164;8.012;2023-12-22T00:04:59;2.00;;;1.13;;
76373;SDS011;65197;50.164;8.012;2023-12-22T00:07:24;1.75;;;1.05;;
76373;SDS011;65197;50.164;8.012;2023-12-22T00:09:50;1.67;;;1.00;;
76373;SDS011;65197;50.164;8.012;2023-12-22T00:12:15;3.22;;;1.38;;
76373;SDS011;65197;50.164;8.012;2023-12-22T00:14:41;1.50;;;1.00;;
76373;SDS011;65197;50.164;8.012;2023-12-22T00:17:07;2.10;;;1.00;;
76373;SDS011;65197;50.164;8.012;2023-12-22T00:19:32;1.70;;;0.98;;
76373;SDS011;65197;50.164;8.012;2023-12-22T00:21:58;1.67;;;0.95;;
76373;SDS011;65197;50.164;8.012;2023-12-22T00:24:23;1.90;;;1.00;;
76373;SDS011;65197;50.164;8.012;2023-12-22T00:26:49;4.25;;;1.60;;
76373;SDS011;65197;50.164;8.012;2023-12-22T00:29:14;4.47;;;1.27;;
76373;SDS011;65197;50.164;8.012;2023-12-22T00:31:40;1.88;;;1.33;;
76373;SDS011;65197;50.164;8.012;2023-12-22T00:34:05;3.92;;;2.50;;
76373;SDS011;65197;50.164;8.012;2023-12-22T00:36:31;3.72;;;1.13;;
76373;SDS011;65197;50.164;8.012;2023-12-22T00:38:56;2.72;;;1.27;;
76373;SDS011;65197;50.164;8.012;2023-12-22T00:41:21;5.38;;;1.55;;
76373;SDS011;65197;50.164;8.012;2023-12-22T00:43:47;3.13;;;1.30;;
76373;SDS011;65197;50.164;8.012;2023-12-22T00:46:13;3.97;;;1.20;;
76373;SDS011;65197;50.164;8.012;2023-12-22T00:48:38;2.90;;;1.17;;
76373;SDS011;65197;50.164;8.012;2023-12-22T00:51:05;4.38;;;1.02;;
76373;SDS011;65197;50.164;8.012;2023-12-22T00:53:32;5.47;;;2.17;;
76373;SDS011;65197;50.164;8.012;2023-12-22T00:55:58;4.25;;;1.60;;
76373;SDS011;65197;50.164;8.012;2023-12-22T00:58:24;3.65;;;1.80;;
76373;SDS011;65197;50.164;8.012;2023-12-22T01:00:50;5.40;;;1.90;;
76373;SDS011;65197;50.164;8.012;2023-12-22T01:03:15;5.07;;;1.48;;
76373;SDS011;65197;50.164;8.012;2023-12-22T01:05:40;4.45;;;1.67;;
76373;SDS011;65197;50.164;8.012;2023-12-22T01:08:06;5.63;;;1.50;;
76373;SDS011;65197;50.164;8.012;2023-12-22T01:10:31;4.18;;;1.65;;
76373;SDS011;65197;50.164;8.012;2023-12-22T01:12:57;3.25;;;1.35;;
76373;SDS011;65197;50.164;8.012;2023-12-22T01:15:22;3.00;;;1.50;;
76373;SDS011;65197;50.164;8.012;2023-12-22T01:17:48;2.10;;;1.00;;
76373;SDS011;65197;50.164;8.012;2023-12-22T01:20:13;0.85;;;0.80;;
76373;SDS011;65197;50.164;8.012;2023-12-22T01:22:39;2.78;;;1.00;;
76373;SDS011;65197;50.164;8.012;2023-12-22T01:25:04;3.00;;;1.25;;
76373;SDS011;65197;50.164;8.012;2023-12-22T01:27:30;1.23;;;0.75;;
76373;SDS011;65197;50.164;8.012;2023-12-22T01:29:56;3.97;;;1.27;;
76373;SDS011;65197;50.164;8.012;2023-12-22T01:32:21;3.42;;;1.50;;
76373;SDS011;65197;50.164;8.012;2023-12-22T01:34:47;5.07;;;1.90;;
76373;SDS011;65197;50.164;8.012;2023-12-22T01:37:12;3.70;;;1.58;;
76373;SDS011;65197;50.164;8.012;2023-12-22T01:39:38;3.28;;;1.67;;
76373;SDS011;65197;50.164;8.012;2023-12-22T01:42:03;4.93;;;1.95;;
76373;SDS011;65197;50.164;8.012;2023-12-22T01:44:29;5.63;;;1.83;;
76373;SDS011;65197;50.164;8.012;2023-12-22T01:46:54;3.40;;;1.58;;
76373;SDS011;65197;50.164;8.012;2023-12-22T01:49:21;3.72;;;1.88;;
76373;SDS011;65197;50.164;8.012;2023-12-22T01:51:47;2.88;;;1.65;;
76373;SDS011;65197;50.164;8.012;2023-12-22T01:54:14;2.92;;;1.50;;
76373;SDS011;65197;50.164;8.012;2023-12-22T01:56:43;2.90;;;1.58;;
76373;SDS011;65197;50.164;8.012;2023-12-22T01:59:10;3.08;;;1.70;;
76373;SDS011;65197;50.164;8.012;2023-12-22T02:01:36;2.15;;;1.27;;
76373;SDS011;65197;50.164;8.012;2023-12-22T02:04:01;2.25;;;1.50;;
76373;SDS011;65197;50.164;8.012;2023-12-22T02:06:30;3.78;;;1.58;;
76373;SDS011;65197;50.164;8.012;2023-12-22T02:08:57;5.57;;;2.03;;
76373;SDS011;65197;50.164;8.012;2023-12-22T02:11:23;6.07;;;2.67;;
76373;SDS011;65197;50.164;8.012;2023-12-22T02:13:49;6.47;;;2.00;;
76373;SDS011;65197;50.164;8.012;2023-12-22T02:18:51;8.30;;;2.65;;
76373;SDS011;65197;50.164;8.012;2023-12-22T02:21:20;5.50;;;2.30;;
76373;SDS011;65197;50.164;8.012;2023-12-22T02:23:47;6.38;;;3.47;;
76373;SDS011;65197;50.164;8.012;2023-12-22T02:26:21;6.00;;;2.88;;
76373;SDS011;65197;50.164;8.012;2023-12-22T02:29:06;8.00;;;3.28;;
76373;SDS011;65197;50.164;8.012;2023-12-22T02:31:37;8.35;;;2.75;;
76373;SDS011;65197;50.164;8.012;2023-12-22T02:34:11;9.05;;;3.20;;
76373;SDS011;65197;50.164;8.012;2023-12-22T02:36:39;6.30;;;3.33;;
76373;SDS011;65197;50.164;8.012;2023-12-22T02:39:06;13.43;;;4.43;;
76373;SDS011;65197;50.164;8.012;2023-12-22T02:41:34;16.58;;;3.78;;
76373;SDS011;65197;50.164;8.012;2023-12-22T02:44:00;14.52;;;4.50;;
76373;SDS011;65197;50.164;8.012;2023-12-22T02:46:26;6.95;;;3.60;;
76373;SDS011;65197;50.164;8.012;2023-12-22T02:48:51;12.25;;;4.00;;
76373;SDS011;65197;50.164;8.012;2023-12-22T02:51:17;13.30;;;3.65;;
76373;SDS011;65197;50.164;8.012;2023-12-22T02:53:42;31.95;;;6.13;;
76373;SDS011;65197;50.164;8.012;2023-12-22T02:56:08;18.88;;;4.78;;
76373;SDS011;65197;50.164;8.012;2023-12-22T02:58:33;10.32;;;3.70;;
76373;SDS011;65197;50.164;8.012;2023-12-22T03:00:58;13.73;;;4.35;;
76373;SDS011;65197;50.164;8.012;2023-12-22T03:03:24;32.20;;;4.95;;
76373;SDS011;65197;50.164;8.012;2023-12-22T03:05:49;43.80;;;6.07;;
76373;SDS011;65197;50.164;8.012;2023-12-22T03:08:15;7.90;;;3.53;;
76373;SDS011;65197;50.164;8.012;2023-12-22T03:10:40;11.45;;;3.42;;
76373;SDS011;65197;50.164;8.012;2023-12-22T03:13:05;8.93;;;3.55;;
76373;SDS011;65197;50.164;8.012;2023-12-22T03:15:31;10.60;;;4.32;;
76373;SDS011;65197;50.164;8.012;2023-12-22T03:17:56;8.82;;;3.22;;
76373;SDS011;65197;50.164;8.012;2023-12-22T03:20:22;12.43;;;4.35;;
76373;SDS011;65197;50.164;8.012;2023-12-22T03:22:47;9.60;;;3.05;;
76373;SDS011;65197;50.164;8.012;2023-12-22T03:25:12;11.00;;;3.20;;
76373;SDS011;65197;50.164;8.012;2023-12-22T03:27:38;9.65;;;3.78;;
76373;SDS011;65197;50.164;8.012;2023-12-22T03:30:03;11.30;;;3.83;;
76373;SDS011;65197;50.164;8.012;2023-12-22T03:32:29;6.60;;;2.40;;
76373;SDS011;65197;50.164;8.012;2023-12-22T03:34:55;8.63;;;2.90;;
76373;SDS011;65197;50.164;8.012;2023-12-22T03:37:20;7.88;;;2.95;;
76373;SDS011;65197;50.164;8.012;2023-12-22T03:39:45;11.98;;;3.00;;
76373;SDS011;65197;50.164;8.012;2023-12-22T03:42:11;6.25;;;2.30;;
76373;SDS011;65197;50.164;8.012;2023-12-22T03:44:36;9.88;;;2.53;;
76373;SDS011;65197;50.164;8.012;2023-12-22T03:47:02;7.15;;;2.30;;
76373;SDS011;65197;50.164;8.012;2023-12-22T03:49:27;4.72;;;1.95;;
76373;SDS011;65197;50.164;8.012;2023-12-22T03:51:52;8.60;;;2.35;;
76373;SDS011;65197;50.164;8.012;2023-12-22T03:54:18;6.05;;;2.13;;
76373;SDS011;65197;50.164;8.012;2023-12-22T03:56:43;9.27;;;2.30;;
76373;SDS011;65197;50.164;8.012;2023-12-22T03:59:09;9.07;;;2.38;;
76373;SDS011;65197;50.164;8.012;2023-12-22T04:01:34;4.38;;;1.90;;
76373;SDS011;65197;50.164;8.012;2023-12-22T04:04:00;5.05;;;1.92;;
76373;SDS011;65197;50.164;8.012;2023-12-22T04:06:25;7.65;;;1.83;;
76373;SDS011;65197;50.164;8.012;2023-12-22T04:08:52;5.20;;;1.92;;
76373;SDS011;65197;50.164;8.012;2023-12-22T04:11:17;10.40;;;2.15;;
76373;SDS011;65197;50.164;8.012;2023-12-22T04:13:42;7.47;;;2.22;;
76373;SDS011;65197;50.164;8.012;2023-12-22T04:16:08;5.00;;;2.38;;
76373;SDS011;65197;50.164;8.012;2023-12-22T04:18:33;6.75;;;2.90;;
76373;SDS011;65197;50.164;8.012;2023-12-22T04:20:59;6.10;;;2.10;;
76373;SDS011;65197;50.164;8.012;2023-12-22T04:23:24;6.90;;;2.10;;
76373;SDS011;65197;50.164;8.012;2023-12-22T04:25:50;10.55;;;3.28;;
76373;SDS011;65197;50.164;8.012;2023-12-22T04:28:15;7.18;;;2.17;;
76373;SDS011;65197;50.164;8.012;2023-12-22T04:30:41;5.80;;;2.13;;
76373;SDS011;65197;50.164;8.012;2023-12-22T04:33:06;7.10;;;1.98;;
76373;SDS011;65197;50.164;8.012;2023-12-22T04:35:32;7.40;;;2.25;;
76373;SDS011;65197;50.164;8.012;2023-12-22T04:37:57;6.18;;;2.28;;
76373;SDS011;65197;50.164;8.012;2023-12-22T04:40:22;5.75;;;1.95;;
76373;SDS011;65197;50.164;8.012;2023-12-22T04:42:48;5.43;;;1.98;;
76373;SDS011;65197;50.164;8.012;2023-12-22T04:45:14;4.65;;;2.28;;
76373;SDS011;65197;50.164;8.012;2023-12-22T04:47:39;10.13;;;2.55;;
76373;SDS011;65197;50.164;8.012;2023-12-22T04:50:05;8.95;;;1.85;;
76373;SDS011;65197;50.164;8.012;2023-12-22T04:52:30;5.15;;;2.20;;
76373;SDS011;65197;50.164;8.012;2023-12-22T04:54:56;11.93;;;2.75;;
76373;SDS011;65197;50.164;8.012;2023-12-22T04:57:21;5.97;;;2.10;;
76373;SDS011;65197;50.164;8.012;2023-12-22T04:59:47;9.50;;;3.00;;
76373;SDS011;65197;50.164;8.012;2023-12-22T05:02:12;6.78;;;2.42;;
76373;SDS011;65197;50.164;8.012;2023-12-22T05:04:38;6.68;;;2.45;;
76373;SDS011;65197;50.164;8.012;2023-12-22T05:07:03;10.98;;;2.38;;
76373;SDS011;65197;50.164;8.012;2023-12-22T05:09:32;4.97;;;2.33;;
76373;SDS011;65197;50.164;8.012;2023-12-22T05:11:58;7.50;;;2.35;;
76373;SDS011;65197;50.164;8.012;2023-12-22T05:14:23;5.75;;;2.22;;
76373;SDS011;65197;50.164;8.012;2023-12-22T05:16:49;6.78;;;2.20;;
76373;SDS011;65197;50.164;8.012;2023-12-22T05:19:14;7.30;;;2.13;;
76373;SDS011;65197;50.164;8.012;2023-12-22T05:21:40;8.20;;;2.55;;
76373;SDS011;65197;50.164;8.012;2023-12-22T05:24:05;9.80;;;3.50;;
76373;SDS011;65197;50.164;8.012;2023-12-22T05:26:30;9.43;;;2.38;;
76373;SDS011;65197;50.164;8.012;2023-12-22T05:28:57;5.32;;;1.90;;
76373;SDS011;65197;50.164;8.012;2023-12-22T05:31:22;6.05;;;2.55;;
76373;SDS011;65197;50.164;8.012;2023-12-22T05:33:47;8.18;;;2.70;;
76373;SDS011;65197;50.164;8.012;2023-12-22T05:36:13;5.50;;;2.45;;
76373;SDS011;65197;50.164;8.012;2023-12-22T05:38:38;8.68;;;2.63;;
76373;SDS011;65197;50.164;8.012;2023-12-22T05:41:04;8.80;;;2.45;;
76373;SDS011;65197;50.164;8.012;2023-12-22T05:43:31;9.63;;;2.47;;
76373;SDS011;65197;50.164;8.012;2023-12-22T05:45:58;4.80;;;2.30;;
76373;SDS011;65197;50.164;8.012;2023-12-22T05:48:23;7.68;;;1.90;;
76373;SDS011;65197;50.164;8.012;2023-12-22T05:50:49;4.93;;;1.63;;
76373;SDS011;65197;50.164;8.012;2023-12-22T05:53:14;4.68;;;1.50;;
76373;SDS011;65197;50.164;8.012;2023-12-22T05:55:40;5.18;;;2.00;;
76373;SDS011;65197;50.164;8.012;2023-12-22T05:58:05;3.30;;;1.75;;
76373;SDS011;65197;50.164;8.012;2023-12-22T06:00:31;7.82;;;2.30;;
76373;SDS011;65197;50.164;8.012;2023-12-22T06:02:56;5.75;;;2.13;;
76373;SDS011;65197;50.164;8.012;2023-12-22T06:05:22;6.35;;;1.80;;
76373;SDS011;65197;50.164;8.012;2023-12-22T06:07:48;4.55;;;1.85;;
76373;SDS011;65197;50.164;8.012;2023-12-22T06:10:13;5.40;;;2.35;;
76373;SDS011;65197;50.164;8.012;2023-12-22T06:12:39;7.85;;;2.30;;
76373;SDS011;65197;50.164;8.012;2023-12-22T06:15:04;7.85;;;2.05;;
76373;SDS011;65197;50.164;8.012;2023-12-22T06:17:30;5.35;;;2.30;;
76373;SDS011;65197;50.164;8.012;2023-12-22T06:19:55;5.75;;;2.70;;
76373;SDS011;65197;50.164;8.012;2023-12-22T06:22:21;6.47;;;2.35;;
76373;SDS011;65197;50.164;8.012;2023-12-22T06:24:48;4.70;;;2.45;;
76373;SDS011;65197;50.164;8.012;2023-12-22T06:27:13;8.38;;;2.20;;
76373;SDS011;65197;50.164;8.012;2023-12-22T06:29:39;4.80;;;2.35;;
76373;SDS011;65197;50.164;8.012;2023-12-22T06:32:04;7.35;;;2.22;;
76373;SDS011;65197;50.164;8.012;2023-12-22T06:34:31;9.65;;;2.50;;
76373;SDS011;65197;50.164;8.012;2023-12-22T06:36:56;5.72;;;1.92;;
76373;SDS011;65197;50.164;8.012;2023-12-22T06:39:22;4.57;;;2.03;;
76373;SDS011;65197;50.164;8.012;2023-12-22T06:41:47;8.48;;;2.20;;
76373;SDS011;65197;50.164;8.012;2023-12-22T06:44:13;12.02;;;2.70;;
76373;SDS011;65197;50.164;8.012;2023-12-22T06:46:38;13.38;;;2.08;;
76373;SDS011;65197;50.164;8.012;2023-12-22T06:49:04;4.00;;;2.25;;
76373;SDS011;65197;50.164;8.012;2023-12-22T06:51:30;5.97;;;2.13;;
76373;SDS011;65197;50.164;8.012;2023-12-22T06:53:56;7.25;;;2.03;;
76373;SDS011;65197;50.164;8.012;2023-12-22T06:56:25;5.45;;;2.30;;
76373;SDS011;65197;50.164;8.012;2023-12-22T06:58:52;12.40;;;2.88;;
76373;SDS011;65197;50.164;8.012;2023-12-22T07:01:19;9.50;;;2.92;;
76373;SDS011;65197;50.164;8.012;2023-12-22T07:03:46;10.82;;;3.72;;
76373;SDS011;65197;50.164;8.012;2023-12-22T07:06:13;11.68;;;3.30;;
76373;SDS011;65197;50.164;8.012;2023-12-22T07:08:42;6.03;;;2.40;;
76373;SDS011;65197;50.164;8.012;2023-12-22T07:11:08;10.13;;;2.75;;
76373;SDS011;65197;50.164;8.012;2023-12-22T07:13:37;7.78;;;2.50;;
76373;SDS011;65197;50.164;8.012;2023-12-22T07:16:03;4.75;;;1.70;;
76373;SDS011;65197;50.164;8.012;2023-12-22T07:18:29;4.22;;;1.75;;
76373;SDS011;65197;50.164;8.012;2023-12-22T07:20:55;9.02;;;2.20;;
76373;SDS011;65197;50.164;8.012;2023-12-22T07:23:22;6.22;;;2.13;;
76373;SDS011;65197;50.164;8.012;2023-12-22T07:25:47;5.78;;;2.10;;
76373;SDS011;65197;50.164;8.012;2023-12-22T07:28:13;4.57;;;1.92;;
76373;SDS011;65197;50.164;8.012;2023-12-22T07:30:38;7.13;;;2.08;;
76373;SDS011;65197;50.164;8.012;2023-12-22T07:33:04;5.60;;;2.20;;
76373;SDS011;65197;50.164;8.012;2023-12-22T07:35:29;3.03;;;1.40;;
76373;SDS011;65197;50.164;8.012;2023-12-22T07:37:54;5.72;;;1.30;;
76373;SDS011;65197;50.164;8.012;2023-12-22T07:40:20;3.10;;;1.40;;
76373;SDS011;65197;50.164;8.012;2023-12-22T07:42:45;6.10;;;1.65;;
76373;SDS011;65197;50.164;8.012;2023-12-22T07:45:11;8.10;;;1.90;;
76373;SDS011;65197;50.164;8.012;2023-12-22T07:47:36;3.25;;;1.50;;
76373;SDS011;65197;50.164;8.012;2023-12-22T07:50:02;6.70;;;1.35;;
76373;SDS011;65197;50.164;8.012;2023-12-22T07:52:28;6.47;;;2.03;;
76373;SDS011;65197;50.164;8.012;2023-12-22T07:54:53;5.90;;;1.35;;
76373;SDS011;65197;50.164;8.012;2023-12-22T07:57:19;4.75;;;1.42;;
76373;SDS011;65197;50.164;8.012;2023-12-22T07:59:44;3.10;;;1.48;;
76373;SDS011;65197;50.164;8.012;2023-12-22T08:02:10;4.90;;;2.13;;
76373;SDS011;65197;50.164;8.012;2023-12-22T08:04:35;7.40;;;2.35;;
76373;SDS011;65197;50.164;8.012;2023-12-22T08:07:00;3.92;;;2.03;;
76373;SDS011;65197;50.164;8.012;2023-12-22T08:09:27;7.05;;;1.95;;
76373;SDS011;65197;50.164;8.012;2023-12-22T08:11:52;3.92;;;1.38;;
76373;SDS011;65197;50.164;8.012;2023-12-22T08:14:18;3.13;;;1.50;;
76373;SDS011;65197;50.164;8.012;2023-12-22T08:16:44;4.63;;;1.92;;
76373;SDS011;65197;50.164;8.012;2023-12-22T08:19:09;3.72;;;1.77;;
76373;SDS011;65197;50.164;8.012;2023-12-22T08:21:35;5.57;;;1.65;;
76373;SDS011;65197;50.164;8.012;2023-12-22T08:24:00;3.72;;;1.60;;
76373;SDS011;65197;50.164;8.012;2023-12-22T08:26:26;7.50;;;3.40;;
76373;SDS011;65197;50.164;8.012;2023-12-22T08:28:52;4.57;;;1.80;;
76373;SDS011;65197;50.164;8.012;2023-12-22T08:31:17;3.58;;;1.70;;
76373;SDS011;65197;50.164;8.012;2023-12-22T08:33:43;3.35;;;2.15;;
76373;SDS011;65197;50.164;8.012;2023-12-22T08:36:10;4.05;;;1.15;;
76373;SDS011;65197;50.164;8.012;2023-12-22T08:38:36;4.22;;;1.40;;
76373;SDS011;65197;50.164;8.012;2023-12-22T08:41:05;2.78;;;1.42;;
76373;SDS011;65197;50.164;8.012;2023-12-22T08:43:32;4.18;;;1.52;;
76373;SDS011;65197;50.164;8.012;2023-12-22T08:45:57;5.47;;;1.38;;
76373;SDS011;65197;50.164;8.012;2023-12-22T08:48:23;3.58;;;1.30;;
76373;SDS011;65197;50.164;8.012;2023-12-22T08:50:48;3.95;;;1.50;;
76373;SDS011;65197;50.164;8.012;2023-12-22T08:53:15;6.50;;;2.08;;
76373;SDS011;65197;50.164;8.012;2023-12-22T08:55:40;4.85;;;1.35;;
76373;SDS011;65197;50.164;8.012;2023-12-22T08:58:05;3.92;;;1.83;;
76373;SDS011;65197;50.164;8.012;2023-12-22T09:00:31;4.35;;;1.52;;
76373;SDS011;65197;50.164;8.012;2023-12-22T09:02:56;5.70;;;1.70;;
76373;SDS011;65197;50.164;8.012;2023-12-22T09:05:21;9.52;;;2.30;;
76373;SDS011;65197;50.164;8.012;2023-12-22T09:07:47;9.63;;;2.20;;
76373;SDS011;65197;50.164;8.012;2023-12-22T09:10:12;13.68;;;4.00;;
76373;SDS011;65197;50.164;8.012;2023-12-22T09:12:38;11.32;;;2.47;;
76373;SDS011;65197;50.164;8.012;2023-12-22T09:15:03;12.60;;;2.95;;
76373;SDS011;65197;50.164;8.012;2023-12-22T09:17:29;10.80;;;4.47;;
76373;SDS011;65197;50.164;8.012;2023-12-22T09:19:54;12.35;;;3.90;;
76373;SDS011;65197;50.164;8.012;2023-12-22T09:22:20;13.55;;;3.53;;
76373;SDS011;65197;50.164;8.012;2023-12-22T09:24:46;12.98;;;5.28;;
76373;SDS011;65197;50.164;8.012;2023-12-22T09:27:12;16.00;;;3.15;;
76373;SDS011;65197;50.164;8.012;2023-12-22T09:29:38;13.55;;;3.53;;
76373;SDS011;65197;50.164;8.012;2023-12-22T09:32:03;11.00;;;3.17;;
76373;SDS011;65197;50.164;8.012;2023-12-22T09:34:29;12.15;;;3.10;;
76373;SDS011;65197;50.164;8.012;2023-12-22T09:36:54;12.98;;;3.40;;
76373;SDS011;65197;50.164;8.012;2023-12-22T09:39:20;15.50;;;3.60;;
76373;SDS011;65197;50.164;8.012;2023-12-22T09:41:47;14.50;;;3.92;;
76373;SDS011;65197;50.164;8.012;2023-12-22T09:44:18;12.95;;;3.47;;
76373;SDS011;65197;50.164;8.012;2023-12-22T09:46:46;15.60;;;6.50;;
76373;SDS011;65197;50.164;8.012;2023-12-22T09:49:13;16.30;;;3.55;;
76373;SDS011;65197;50.164;8.012;2023-12-22T09:51:39;15.50;;;3.67;;
76373;SDS011;65197;50.164;8.012;2023-12-22T09:54:07;16.10;;;3.63;;
76373;SDS011;65197;50.164;8.012;2023-12-22T09:56:34;15.68;;;4.78;;
76373;SDS011;65197;50.164;8.012;2023-12-22T09:59:06;14.85;;;3.80;;
76373;SDS011;65197;50.164;8.012;2023-12-22T10:01:33;12.25;;;3.22;;
76373;SDS011;65197;50.164;8.012;2023-12-22T10:04:00;15.57;;;3.25;;
76373;SDS011;65197;50.164;8.012;2023-12-22T10:06:25;13.98;;;3.97;;
76373;SDS011;65197;50.164;8.012;2023-12-22T10:08:51;14.15;;;4.47;;
76373;SDS011;65197;50.164;8.012;2023-12-22T10:11:18;19.50;;;3.33;;
76373;SDS011;65197;50.164;8.012;2023-12-22T10:13:45;19.77;;;4.63;;
76373;SDS011;65197;50.164;8.012;2023-12-22T10:16:13;10.38;;;3.65;;
76373;SDS011;65197;50.164;8.012;2023-12-22T10:18:39;12.32;;;3.75;;
76373;SDS011;65197;50.164;8.012;2023-12-22T10:21:04;13.90;;;4.22;;
76373;SDS011;65197;50.164;8.012;2023-12-22T10:23:30;12.75;;;3.67;;
76373;SDS011;65197;50.164;8.012;2023-12-22T10:25:57;16.40;;;3.47;;
76373;SDS011;65197;50.164;8.012;2023-12-22T10:28:23;15.65;;;3.45;;
76373;SDS011;65197;50.164;8.012;2023-12-22T10:30:51;9.15;;;3.55;;
76373;SDS011;65197;50.164;8.012;2023-12-22T10:33:18;12.63;;;4.30;;
76373;SDS011;65197;50.164;8.012;2023-12-22T10:35:43;14.38;;;4.78;;
76373;SDS011;65197;50.164;8.012;2023-12-22T10:38:09;10.15;;;3.78;;
76373;SDS011;65197;50.164;8.012;2023-12-22T10:40:36;17.58;;;4.75;;
76373;SDS011;65197;50.164;8.012;2023-12-22T10:43:02;14.38;;;3.80;;
76373;SDS011;65197;50.164;8.012;2023-12-22T10:45:29;13.93;;;4.07;;
76373;SDS011;65197;50.164;8.012;2023-12-22T10:47:55;12.20;;;3.97;;
76373;SDS011;65197;50.164;8.012;2023-12-22T10:50:24;13.30;;;4.18;;
76373;SDS011;65197;50.164;8.012;2023-12-22T10:52:50;13.63;;;4.18;;
76373;SDS011;65197;50.164;8.012;2023-12-22T10:55:16;12.68;;;4.18;;
76373;SDS011;65197;50.164;8.012;2023-12-22T10:57:43;10.93;;;2.95;;
76373;SDS011;65197;50.164;8.012;2023-12-22T11:00:11;10.48;;;3.20;;
76373;SDS011;65197;50.164;8.012;2023-12-22T11:02:41;10.15;;;2.90;;
76373;SDS011;65197;50.164;8.012;2023-12-22T11:05:07;9.35;;;3.22;;
76373;SDS011;65197;50.164;8.012;2023-12-22T11:07:37;10.90;;;2.90;;
76373;SDS011;65197;50.164;8.012;2023-12-22T11:10:05;10.68;;;3.25;;
76373;SDS011;65197;50.164;8.012;2023-12-22T11:12:40;12.63;;;3.03;;
76373;SDS011;65197;50.164;8.012;2023-12-22T11:15:09;8.05;;;2.40;;
76373;SDS011;65197;50.164;8.012;2023-12-22T11:17:39;8.93;;;2.90;;
76373;SDS011;65197;50.164;8.012;2023-12-22T11:20:05;12.05;;;3.85;;
76373;SDS011;65197;50.164;8.012;2023-12-22T11:22:31;12.32;;;3.00;;
76373;SDS011;65197;50.164;8.012;2023-12-22T11:24:58;7.93;;;2.90;;
76373;SDS011;65197;50.164;8.012;2023-12-22T11:27:24;8.45;;;2.13;;
76373;SDS011;65197;50.164;8.012;2023-12-22T11:29:51;7.60;;;2.38;;
76373;SDS011;65197;50.164;8.012;2023-12-22T11:32:18;5.15;;;2.00;;
76373;SDS011;65197;50.164;8.012;2023-12-22T11:34:44;6.88;;;2.35;;
76373;SDS011;65197;50.164;8.012;2023-12-22T11:37:14;7.00;;;1.65;;
76373;SDS011;65197;50.164;8.012;2023-12-22T11:39:41;6.03;;;2.13;;
76373;SDS011;65197;50.164;8.012;2023-12-22T11:42:14;4.22;;;1.83;;
76373;SDS011;65197;50.164;8.012;2023-12-22T11:44:43;4.57;;;1.63;;
76373;SDS011;65197;50.164;8.012;2023-12-22T11:47:09;7.75;;;1.83;;
76373;SDS011;65197;50.164;8.012;2023-12-22T11:49:36;5.25;;;2.03;;
76373;SDS011;65197;50.164;8.012;2023-12-22T11:59:52;6.75;;;2.00;;
76373;SDS011;65197;50.164;8.012;2023-12-22T12:02:17;3.88;;;1.60;;
76373;SDS011;65197;50.164;8.012;2023-12-22T12:04:43;5.90;;;1.92;;
76373;SDS011;65197;50.164;8.012;2023-12-22T12:10:01;4.47;;;1.90;;
76373;SDS011;65197;50.164;8.012;2023-12-22T12:12:27;4.20;;;2.00;;
76373;SDS011;65197;50.164;8.012;2023-12-22T12:14:52;5.28;;;1.98;;
76373;SDS011;65197;50.164;8.012;2023-12-22T12:17:22;9.05;;;2.63;;
76373;SDS011;65197;50.164;8.012;2023-12-22T12:19:48;4.47;;;2.00;;
76373;SDS011;65197;50.164;8.012;2023-12-22T12:22:14;6.25;;;2.20;;
76373;SDS011;65197;50.164;8.012;2023-12-22T12:24:40;4.78;;;2.63;;
76373;SDS011;65197;50.164;8.012;2023-12-22T12:27:07;4.90;;;2.30;;
76373;SDS011;65197;50.164;8.012;2023-12-22T12:29:32;6.40;;;3.10;;
76373;SDS011;65197;50.164;8.012;2023-12-22T12:32:04;5.90;;;2.35;;
76373;SDS011;65197;50.164;8.012;2023-12-22T12:34:31;7.80;;;2.70;;
76373;SDS011;65197;50.164;8.012;2023-12-22T12:36:57;6.80;;;3.30;;
76373;SDS011;65197;50.164;8.012;2023-12-22T12:39:23;7.45;;;3.22;;
76373;SDS011;65197;50.164;8.012;2023-12-22T12:41:54;6.93;;;2.78;;
76373;SDS011;65197;50.164;8.012;2023-12-22T12:44:21;10.60;;;4.97;;
76373;SDS011;65197;50.164;8.012;2023-12-22T12:46:49;6.85;;;2.85;;
76373;SDS011;65197;50.164;8.012;2023-12-22T12:49:14;6.47;;;3.08;;
76373;SDS011;65197;50.164;8.012;2023-12-22T12:51:44;7.68;;;2.47;;
76373;SDS011;65197;50.164;8.012;2023-12-22T12:54:11;7.28;;;2.67;;
76373;SDS011;65197;50.164;8.012;2023-12-22T12:59:08;4.65;;;2.00;;
76373;SDS011;65197;50.164;8.012;2023-12-22T13:01:37;3.25;;;1.65;;
76373;SDS011;65197;50.164;8.012;2023-12-22T13:04:05;4.32;;;1.77;;
76373;SDS011;65197;50.164;8.012;2023-12-22T13:06:31;3.70;;;1.73;;
76373;SDS011;65197;50.164;8.012;2023-12-22T13:08:57;3.00;;;1.90;;
76373;SDS011;65197;50.164;8.012;2023-12-22T13:11:23;7.38;;;2.20;;
76373;SDS011;65197;50.164;8.012;2023-12-22T13:13:50;3.30;;;1.60;;
76373;SDS011;65197;50.164;8.012;2023-12-22T13:16:19;3.75;;;1.77;;
76373;SDS011;65197;50.164;8.012;2023-12-22T13:18:47;3.20;;;1.48;;
76373;SDS011;65197;50.164;8.012;2023-12-22T13:21:13;4.00;;;1.30;;
76373;SDS011;65197;50.164;8.012;2023-12-22T13:23:40;3.22;;;1.98;;
76373;SDS011;65197;50.164;8.012;2023-12-22T13:26:16;2.85;;;1.50;;
76373;SDS011;65197;50.164;8.012;2023-12-22T13:28:43;2.47;;;1.40;;
76373;SDS011;65197;50.164;8.012;2023-12-22T13:31:14;3.22;;;1.67;;
76373;SDS011;65197;50.164;8.012;2023-12-22T13:33:43;2.13;;;1.40;;
76373;SDS011;65197;50.164;8.012;2023-12-22T13:36:08;5.30;;;2.08;;
76373;SDS011;65197;50.164;8.012;2023-12-22T13:38:34;3.53;;;1.83;;
76373;SDS011;65197;50.164;8.012;2023-12-22T13:41:00;4.15;;;1.90;;
76373;SDS011;65197;50.164;8.012;2023-12-22T13:43:28;1.80;;;1.23;;
76373;SDS011;65197;50.164;8.012;2023-12-22T13:45:54;2.95;;;1.23;;
76373;SDS011;65197;50.164;8.012;2023-12-22T13:48:19;2.58;;;1.42;;
76373;SDS011;65197;50.164;8.012;2023-12-22T13:50:54;2.63;;;1.40;;
76373;SDS011;65197;50.164;8.012;2023-12-22T13:53:26;3.53;;;2.03;;
76373;SDS011;65197;50.164;8.012;2023-12-22T13:55:59;4.47;;;2.00;;
76373;SDS011;65197;50.164;8.012;2023-12-22T13:58:25;3.40;;;1.50;;
76373;SDS011;65197;50.164;8.012;2023-12-22T14:00:51;4.43;;;2.00;;
76373;SDS011;65197;50.164;8.012;2023-12-22T14:03:17;6.28;;;3.05;;
76373;SDS011;65197;50.164;8.012;2023-12-22T14:05:46;2.67;;;1.30;;
76373;SDS011;65197;50.164;8.012;2023-12-22T14:08:11;2.55;;;1.50;;
76373;SDS011;65197;50.164;8.012;2023-12-22T14:10:37;2.70;;;1.55;;
76373;SDS011;65197;50.164;8.012;2023-12-22T14:13:09;2.95;;;2.13;;
76373;SDS011;65197;50.164;8.012;2023-12-22T14:15:34;2.40;;;1.42;;
76373;SDS011;65197;50.164;8.012;2023-12-22T14:18:01;4.10;;;2.15;;
76373;SDS011;65197;50.164;8.012;2023-12-22T14:20:27;2.33;;;1.35;;
76373;SDS011;65197;50.164;8.012;2023-12-22T14:22:52;1.52;;;1.17;;
76373;SDS011;65197;50.164;8.012;2023-12-22T14:25:17;2.30;;;1.40;;
76373;SDS011;65197;50.164;8.012;2023-12-22T14:27:43;2.38;;;1.38;;
76373;SDS011;65197;50.164;8.012;2023-12-22T14:30:08;2.40;;;1.25;;
76373;SDS011;65197;50.164;8.012;2023-12-22T14:32:34;2.55;;;1.40;;
76373;SDS011;65197;50.164;8.012;2023-12-22T14:34:59;1.60;;;1.00;;
76373;SDS011;65197;50.164;8.012;2023-12-22T14:37:25;2.60;;;1.15;;
76373;SDS011;65197;50.164;8.012;2023-12-22T14:39:51;2.10;;;1.00;;
76373;SDS011;65197;50.164;8.012;2023-12-22T14:42:16;4.55;;;1.70;;
76373;SDS011;65197;50.164;8.012;2023-12-22T14:44:42;1.60;;;1.00;;
76373;SDS011;65197;50.164;8.012;2023-12-22T14:47:07;2.90;;;1.30;;
76373;SDS011;65197;50.164;8.012;2023-12-22T14:49:33;2.35;;;1.45;;
76373;SDS011;65197;50.164;8.012;2023-12-22T14:51:58;2.28;;;1.42;;
76373;SDS011;65197;50.164;8.012;2023-12-22T14:54:24;4.93;;;2.55;;